sensor_id;sensor_type;location;lat;lon;timestamp;pressure;altitude;pressure_sealevel;temperature
37452;BMP280;23314;51.114;6.900;2024-01-15T00:01:14;100007.97;;;2.88
37452;BMP280;23314;51.114;6.900;2024-01-15T00:03:39;100003.78;;;2.83
37452;BMP280;23314;51.114;6.900;2024-01-15T00:06:04;100007.88;;;2.81
37452;BMP280;23314;51.114;6.900;2024-01-15T00:08:30;100005.63;;;2.79
37452;BMP280;23314;51.114;6.900;2024-01-15T00:10:55;100001.78;;;2.73
37452;BMP280;23314;51.114;6.900;2024-01-15T00:13:20;100005.59;;;2.76
37452;BMP280;23314;51.114;6.900;2024-01-15T00:15:46;100007.81;;;2.73
37452;BMP280;23314;51.114;6.900;2024-01-15T00:18:11;100009.69;;;2.73
37452;BMP280;23314;51.114;6.900;2024-01-15T00:20:36;100007.00;;;2.66
37452;BMP280;23314;51.114;6.900;2024-01-15T00:23:02;100010.00;;;2.64
37452;BMP280;23314;51.114;6.900;2024-01-15T00:25:27;100008.88;;;2.65
37452;BMP280;23314;51.114;6.900;2024-01-15T00:27:52;100009.25;;;2.64
37452;BMP280;23314;51.114;6.900;2024-01-15T00:30:18;99994.50;;;2.59
37452;BMP280;23314;51.114;6.900;2024-01-15T00:32:43;100000.09;;;2.54
37452;BMP280;23314;51.114;6.900;2024-01-15T00:35:09;100001.56;;;2.51
37452;BMP280;23314;51.114;6.900;2024-01-15T00:37:34;100006.44;;;2.49
37452;BMP280;23314;51.114;6.900;2024-01-15T00:39:59;99989.91;;;2.49
37452;BMP280;23314;51.114;6.900;2024-01-15T00:42:26;99987.66;;;2.51
37452;BMP280;23314;51.114;6.900;2024-01-15T00:44:51;99988.78;;;2.50
37452;BMP280;23314;51.114;6.900;2024-01-15T00:47:18;99989.53;;;2.50
37452;BMP280;23314;51.114;6.900;2024-01-15T00:49:44;99987.28;;;2.49
37452;BMP280;23314;51.114;6.900;2024-01-15T00:52:10;99988.78;;;2.50
37452;BMP280;23314;51.114;6.900;2024-01-15T00:54:35;99984.25;;;2.50
37452;BMP280;23314;51.114;6.900;2024-01-15T00:57:01;99979.78;;;2.51
37452;BMP280;23314;51.114;6.900;2024-01-15T00:59:26;99971.47;;;2.49
37452;BMP280;23314;51.114;6.900;2024-01-15T01:01:52;99962.81;;;2.48
37452;BMP280;23314;51.114;6.900;2024-01-15T01:04:17;99973.72;;;2.50
37452;BMP280;23314;51.114;6.900;2024-01-15T01:06:43;99967.72;;;2.50
37452;BMP280;23314;51.114;6.900;2024-01-15T01:09:08;99971.47;;;2.49
37452;BMP280;23314;51.114;6.900;2024-01-15T01:11:33;99970.69;;;2.48
37452;BMP280;23314;51.114;6.900;2024-01-15T01:13:59;99957.94;;;2.50
37452;BMP280;23314;51.114;6.900;2024-01-15T01:16:24;99973.03;;;2.53
37452;BMP280;23314;51.114;6.900;2024-01-15T01:18:49;99967.75;;;2.53
37452;BMP280;23314;51.114;6.900;2024-01-15T01:21:15;99973.00;;;2.50
37452;BMP280;23314;51.114;6.900;2024-01-15T01:23:40;99965.50;;;2.52
37452;BMP280;23314;51.114;6.900;2024-01-15T01:26:05;99961.34;;;2.51
37452;BMP280;23314;51.114;6.900;2024-01-15T01:28:30;99963.59;;;2.52
37452;BMP280;23314;51.114;6.900;2024-01-15T01:30:56;99955.75;;;2.56
37452;BMP280;23314;51.114;6.900;2024-01-15T01:33:21;99963.28;;;2.57
37452;BMP280;23314;51.114;6.900;2024-01-15T01:35:46;99961.81;;;2.60
37452;BMP280;23314;51.114;6.900;2024-01-15T01:38:12;99964.84;;;2.62
37452;BMP280;23314;51.114;6.900;2024-01-15T01:40:38;99957.34;;;2.64
37452;BMP280;23314;51.114;6.900;2024-01-15T01:43:04;99955.81;;;2.63
37452;BMP280;23314;51.114;6.900;2024-01-15T01:45:30;99961.50;;;2.65
37452;BMP280;23314;51.114;6.900;2024-01-15T01:47:55;99955.09;;;2.66
37452;BMP280;23314;51.114;6.900;2024-01-15T01:50:21;99966.38;;;2.67
37452;BMP280;23314;51.114;6.900;2024-01-15T01:52:46;99959.63;;;2.69
37452;BMP280;23314;51.114;6.900;2024-01-15T01:55:12;99961.88;;;2.71
37452;BMP280;23314;51.114;6.900;2024-01-15T01:57:38;99953.28;;;2.74
37452;BMP280;23314;51.114;6.900;2024-01-15T02:00:04;99952.94;;;2.76
37452;BMP280;23314;51.114;6.900;2024-01-15T02:02:31;99960.06;;;2.75
37452;BMP280;23314;51.114;6.900;2024-01-15T02:04:56;99954.06;;;2.78
37452;BMP280;23314;51.114;6.900;2024-01-15T02:07:22;99973.25;;;2.79
37452;BMP280;23314;51.114;6.900;2024-01-15T02:09:47;99976.69;;;2.83
37452;BMP280;23314;51.114;6.900;2024-01-15T02:12:14;99972.94;;;2.84
37452;BMP280;23314;51.114;6.900;2024-01-15T02:14:39;99979.00;;;2.88
37452;BMP280;23314;51.114;6.900;2024-01-15T02:17:06;99983.53;;;2.87
37452;BMP280;23314;51.114;6.900;2024-01-15T02:19:32;99982.75;;;2.87
37452;BMP280;23314;51.114;6.900;2024-01-15T02:21:57;99979.75;;;2.88
37452;BMP280;23314;51.114;6.900;2024-01-15T02:24:22;99979.38;;;2.90
37452;BMP280;23314;51.114;6.900;2024-01-15T02:26:48;99970.78;;;2.93
37452;BMP280;23314;51.114;6.900;2024-01-15T02:29:15;99972.63;;;2.93
37452;BMP280;23314;51.114;6.900;2024-01-15T02:31:40;99964.38;;;2.94
37452;BMP280;23314;51.114;6.900;2024-01-15T02:34:06;99968.56;;;2.99
37452;BMP280;23314;51.114;6.900;2024-01-15T02:36:31;99964.41;;;2.98
37452;BMP280;23314;51.114;6.900;2024-01-15T02:38:57;99968.94;;;2.97
37452;BMP280;23314;51.114;6.900;2024-01-15T02:41:22;99969.69;;;2.98
37452;BMP280;23314;51.114;6.900;2024-01-15T02:43:47;99965.19;;;2.98
37452;BMP280;23314;51.114;6.900;2024-01-15T02:46:12;99958.41;;;2.97
37452;BMP280;23314;51.114;6.900;2024-01-15T02:48:38;99965.53;;;2.97
37452;BMP280;23314;51.114;6.900;2024-01-15T02:51:03;99965.53;;;2.97
37452;BMP280;23314;51.114;6.900;2024-01-15T02:53:29;99961.03;;;2.97
37452;BMP280;23314;51.114;6.900;2024-01-15T02:55:54;99961.03;;;3.01
37452;BMP280;23314;51.114;6.900;2024-01-15T02:58:19;99962.94;;;3.04
37452;BMP280;23314;51.114;6.900;2024-01-15T03:00:45;99965.56;;;3.04
37452;BMP280;23314;51.114;6.900;2024-01-15T03:03:11;99961.41;;;3.03
37452;BMP280;23314;51.114;6.900;2024-01-15T03:05:37;99968.56;;;3.02
37452;BMP280;23314;51.114;6.900;2024-01-15T03:08:02;99965.91;;;3.02
37452;BMP280;23314;51.114;6.900;2024-01-15T03:10:27;99970.84;;;3.04
37452;BMP280;23314;51.114;6.900;2024-01-15T03:12:53;99976.84;;;3.04
37452;BMP280;23314;51.114;6.900;2024-01-15T03:15:18;99969.72;;;3.05
37452;BMP280;23314;51.114;6.900;2024-01-15T03:17:44;99962.56;;;3.06
37452;BMP280;23314;51.114;6.900;2024-01-15T03:20:10;99972.38;;;3.09
37452;BMP280;23314;51.114;6.900;2024-01-15T03:22:35;99969.41;;;3.10
37452;BMP280;23314;51.114;6.900;2024-01-15T03:25:01;99972.44;;;3.12
37452;BMP280;23314;51.114;6.900;2024-01-15T03:27:26;99967.16;;;3.12
37452;BMP280;23314;51.114;6.900;2024-01-15T03:29:52;99957.38;;;3.13
37452;BMP280;23314;51.114;6.900;2024-01-15T03:32:17;99968.28;;;3.11
37452;BMP280;23314;51.114;6.900;2024-01-15T03:34:42;99962.63;;;3.09
37452;BMP280;23314;51.114;6.900;2024-01-15T03:37:08;99960.38;;;3.11
37452;BMP280;23314;51.114;6.900;2024-01-15T03:39:33;99961.13;;;3.12
37452;BMP280;23314;51.114;6.900;2024-01-15T03:41:58;99950.56;;;3.12
37452;BMP280;23314;51.114;6.900;2024-01-15T03:44:24;99962.25;;;3.14
37452;BMP280;23314;51.114;6.900;2024-01-15T03:46:50;99958.50;;;3.15
37452;BMP280;23314;51.114;6.900;2024-01-15T03:49:15;99953.59;;;3.14
37452;BMP280;23314;51.114;6.900;2024-01-15T03:51:41;99954.75;;;3.16
37452;BMP280;23314;51.114;6.900;2024-01-15T03:54:06;99970.59;;;3.20
37452;BMP280;23314;51.114;6.900;2024-01-15T03:56:31;99962.66;;;3.16
37452;BMP280;23314;51.114;6.900;2024-01-15T03:58:56;99953.22;;;3.15
37452;BMP280;23314;51.114;6.900;2024-01-15T04:01:22;99952.09;;;3.13
37452;BMP280;23314;51.114;6.900;2024-01-15T04:03:47;99949.84;;;3.15
37452;BMP280;23314;51.114;6.900;2024-01-15T04:06:12;99949.09;;;3.14
37452;BMP280;23314;51.114;6.900;2024-01-15T04:08:38;99943.47;;;3.16
37452;BMP280;23314;51.114;6.900;2024-01-15T04:11:03;99937.44;;;3.15
37452;BMP280;23314;51.114;6.900;2024-01-15T04:13:32;99942.28;;;3.13
37452;BMP280;23314;51.114;6.900;2024-01-15T04:15:57;99944.19;;;3.13
37452;BMP280;23314;51.114;6.900;2024-01-15T04:18:23;99944.19;;;3.13
37452;BMP280;23314;51.114;6.900;2024-01-15T04:20:48;99935.53;;;3.12
37452;BMP280;23314;51.114;6.900;2024-01-15T04:23:13;99931.75;;;3.13
37452;BMP280;23314;51.114;6.900;2024-01-15T04:25:39;99937.03;;;3.13
37452;BMP280;23314;51.114;6.900;2024-01-15T04:28:08;99931.75;;;3.13
37452;BMP280;23314;51.114;6.900;2024-01-15T04:30:34;99925.03;;;3.16
37452;BMP280;23314;51.114;6.900;2024-01-15T04:32:59;99927.28;;;3.17
37452;BMP280;23314;51.114;6.900;2024-01-15T04:35:24;99917.50;;;3.18
37452;BMP280;23314;51.114;6.900;2024-01-15T04:37:50;99923.16;;;3.20
37452;BMP280;23314;51.114;6.900;2024-01-15T04:40:15;99920.16;;;3.22
37452;BMP280;23314;51.114;6.900;2024-01-15T04:42:41;99914.88;;;3.22
37452;BMP280;23314;51.114;6.900;2024-01-15T04:45:06;99910.75;;;3.21
37452;BMP280;23314;51.114;6.900;2024-01-15T04:47:32;99901.72;;;3.22
37452;BMP280;23314;51.114;6.900;2024-01-15T04:49:57;99899.06;;;3.22
37452;BMP280;23314;51.114;6.900;2024-01-15T04:52:22;99908.09;;;3.21
37452;BMP280;23314;51.114;6.900;2024-01-15T04:54:48;99908.09;;;3.21
37452;BMP280;23314;51.114;6.900;2024-01-15T04:57:14;99900.19;;;3.21
37452;BMP280;23314;51.114;6.900;2024-01-15T04:59:40;99894.94;;;3.21
37452;BMP280;23314;51.114;6.900;2024-01-15T05:02:05;99893.06;;;3.21
37452;BMP280;23314;51.114;6.900;2024-01-15T05:04:30;99902.50;;;3.26
37452;BMP280;23314;51.114;6.900;2024-01-15T05:06:56;99893.81;;;3.25
37452;BMP280;23314;51.114;6.900;2024-01-15T05:09:21;99887.81;;;3.28
37452;BMP280;23314;51.114;6.900;2024-01-15T05:11:46;99896.47;;;3.32
37452;BMP280;23314;51.114;6.900;2024-01-15T05:14:12;99896.47;;;3.32
37452;BMP280;23314;51.114;6.900;2024-01-15T05:16:46;99894.25;;;3.34
37452;BMP280;23314;51.114;6.900;2024-01-15T05:19:11;99888.25;;;3.38
37452;BMP280;23314;51.114;6.900;2024-01-15T05:21:37;99893.91;;;3.36
37452;BMP280;23314;51.114;6.900;2024-01-15T05:24:02;99889.75;;;3.35
37452;BMP280;23314;51.114;6.900;2024-01-15T05:26:30;99886.00;;;3.36
37452;BMP280;23314;51.114;6.900;2024-01-15T05:28:55;99888.25;;;3.38
37452;BMP280;23314;51.114;6.900;2024-01-15T05:31:21;99880.34;;;3.38
37452;BMP280;23314;51.114;6.900;2024-01-15T05:33:46;99879.22;;;3.39
37452;BMP280;23314;51.114;6.900;2024-01-15T05:36:11;99882.97;;;3.38
37452;BMP280;23314;51.114;6.900;2024-01-15T05:38:37;99885.63;;;3.41
37452;BMP280;23314;51.114;6.900;2024-01-15T05:41:02;99880.34;;;3.41
37452;BMP280;23314;51.114;6.900;2024-01-15T05:43:27;99875.06;;;3.41
37452;BMP280;23314;51.114;6.900;2024-01-15T05:45:53;99881.47;;;3.40
37452;BMP280;23314;51.114;6.900;2024-01-15T05:48:18;99881.13;;;3.42
37452;BMP280;23314;51.114;6.900;2024-01-15T05:50:43;99865.63;;;3.37
37452;BMP280;23314;51.114;6.900;2024-01-15T05:53:09;99870.53;;;3.38
37452;BMP280;23314;51.114;6.900;2024-01-15T05:55:36;99875.06;;;3.38
37452;BMP280;23314;51.114;6.900;2024-01-15T05:58:02;99869.41;;;3.39
37452;BMP280;23314;51.114;6.900;2024-01-15T06:00:28;99861.13;;;3.37
37452;BMP280;23314;51.114;6.900;2024-01-15T06:02:53;99866.38;;;3.37
37452;BMP280;23314;51.114;6.900;2024-01-15T06:05:18;99865.25;;;3.38
37452;BMP280;23314;51.114;6.900;2024-01-15T06:07:44;99864.91;;;3.36
37452;BMP280;23314;51.114;6.900;2024-01-15T06:10:09;99867.16;;;3.38
37452;BMP280;23314;51.114;6.900;2024-01-15T06:12:34;99865.25;;;3.38
37452;BMP280;23314;51.114;6.900;2024-01-15T06:15:00;99854.72;;;3.38
37452;BMP280;23314;51.114;6.900;2024-01-15T06:17:25;99857.00;;;3.43
37452;BMP280;23314;51.114;6.900;2024-01-15T06:19:50;99853.25;;;3.44
37452;BMP280;23314;51.114;6.900;2024-01-15T06:22:16;99846.84;;;3.45
37452;BMP280;23314;51.114;6.900;2024-01-15T06:24:41;99856.28;;;3.46
37452;BMP280;23314;51.114;6.900;2024-01-15T06:27:06;99848.38;;;3.46
37452;BMP280;23314;51.114;6.900;2024-01-15T06:29:32;99843.50;;;3.48
37452;BMP280;23314;51.114;6.900;2024-01-15T06:31:57;99851.03;;;3.50
37452;BMP280;23314;51.114;6.900;2024-01-15T06:34:22;99840.47;;;3.50
37452;BMP280;23314;51.114;6.900;2024-01-15T06:36:48;99842.38;;;3.53
37452;BMP280;23314;51.114;6.900;2024-01-15T06:39:13;99845.78;;;3.54
37452;BMP280;23314;51.114;6.900;2024-01-15T06:41:38;99844.66;;;3.55
37452;BMP280;23314;51.114;6.900;2024-01-15T06:44:12;99843.50;;;3.56
37452;BMP280;23314;51.114;6.900;2024-01-15T06:46:44;99837.47;;;3.55
37452;BMP280;23314;51.114;6.900;2024-01-15T06:49:10;99849.53;;;3.56
37452;BMP280;23314;51.114;6.900;2024-01-15T06:51:35;99836.34;;;3.56
37452;BMP280;23314;51.114;6.900;2024-01-15T06:54:01;99842.03;;;3.55
37452;BMP280;23314;51.114;6.900;2024-01-15T06:56:27;99840.88;;;3.52
37452;BMP280;23314;51.114;6.900;2024-01-15T06:58:52;99842.38;;;3.53
37452;BMP280;23314;51.114;6.900;2024-01-15T07:01:17;99848.38;;;3.50
37452;BMP280;23314;51.114;6.900;2024-01-15T07:03:43;99847.63;;;3.49
37452;BMP280;23314;51.114;6.900;2024-01-15T07:06:08;99844.22;;;3.45
37452;BMP280;23314;51.114;6.900;2024-01-15T07:08:33;99846.47;;;3.43
37452;BMP280;23314;51.114;6.900;2024-01-15T07:10:58;99851.00;;;3.43
37452;BMP280;23314;51.114;6.900;2024-01-15T07:13:26;99847.97;;;3.44
37452;BMP280;23314;51.114;6.900;2024-01-15T07:15:52;99846.47;;;3.43
37452;BMP280;23314;51.114;6.900;2024-01-15T07:18:17;99840.06;;;3.44
37452;BMP280;23314;51.114;6.900;2024-01-15T07:20:42;99843.44;;;3.41
37452;BMP280;23314;51.114;6.900;2024-01-15T07:23:08;99841.59;;;3.45
37452;BMP280;23314;51.114;6.900;2024-01-15T07:25:34;99838.94;;;3.42
37452;BMP280;23314;51.114;6.900;2024-01-15T07:27:59;99840.06;;;3.41
37452;BMP280;23314;51.114;6.900;2024-01-15T07:30:24;99837.44;;;3.41
37452;BMP280;23314;51.114;6.900;2024-01-15T07:32:50;99837.03;;;3.39
37452;BMP280;23314;51.114;6.900;2024-01-15T07:35:17;99841.56;;;3.42
37452;BMP280;23314;51.114;6.900;2024-01-15T07:37:42;99835.94;;;3.43
37452;BMP280;23314;51.114;6.900;2024-01-15T07:40:08;99829.19;;;3.46
37452;BMP280;23314;51.114;6.900;2024-01-15T07:42:38;99836.00;;;3.58
37452;BMP280;23314;51.114;6.900;2024-01-15T07:45:04;99836.41;;;3.71
37452;BMP280;23314;51.114;6.900;2024-01-15T07:47:30;99840.91;;;3.67
37452;BMP280;23314;51.114;6.900;2024-01-15T07:49:55;99837.91;;;3.64
37452;BMP280;23314;51.114;6.900;2024-01-15T07:52:21;99843.53;;;3.63
37452;BMP280;23314;51.114;6.900;2024-01-15T07:54:46;99836.72;;;3.62
37452;BMP280;23314;51.114;6.900;2024-01-15T07:57:12;99837.50;;;3.62
37452;BMP280;23314;51.114;6.900;2024-01-15T07:59:37;99842.78;;;3.62
37452;BMP280;23314;51.114;6.900;2024-01-15T08:02:03;99827.69;;;3.63
37452;BMP280;23314;51.114;6.900;2024-01-15T08:04:28;99829.22;;;3.64
37452;BMP280;23314;51.114;6.900;2024-01-15T08:06:54;99825.44;;;3.65
37452;BMP280;23314;51.114;6.900;2024-01-15T08:09:28;99825.84;;;3.63
37452;BMP280;23314;51.114;6.900;2024-01-15T08:11:54;99826.22;;;3.65
37452;BMP280;23314;51.114;6.900;2024-01-15T08:14:20;99818.28;;;3.62
37452;BMP280;23314;51.114;6.900;2024-01-15T08:16:45;99826.97;;;3.62
37452;BMP280;23314;51.114;6.900;2024-01-15T08:19:10;99824.72;;;3.64
37452;BMP280;23314;51.114;6.900;2024-01-15T08:21:36;99822.81;;;3.65
37452;BMP280;23314;51.114;6.900;2024-01-15T08:24:02;99808.50;;;3.66
37452;BMP280;23314;51.114;6.900;2024-01-15T08:26:28;99822.06;;;3.61
37452;BMP280;23314;51.114;6.900;2024-01-15T08:28:53;99811.13;;;3.62
37452;BMP280;23314;51.114;6.900;2024-01-15T08:31:19;99812.66;;;3.63
37452;BMP280;23314;51.114;6.900;2024-01-15T08:33:44;99804.00;;;3.67
37452;BMP280;23314;51.114;6.900;2024-01-15T08:36:10;99804.00;;;3.67
37452;BMP280;23314;51.114;6.900;2024-01-15T08:38:35;99806.25;;;3.61
37452;BMP280;23314;51.114;6.900;2024-01-15T08:41:01;99812.63;;;3.53
37452;BMP280;23314;51.114;6.900;2024-01-15T08:43:27;99817.50;;;3.47
37452;BMP280;23314;51.114;6.900;2024-01-15T08:45:52;99813.31;;;3.42
37452;BMP280;23314;51.114;6.900;2024-01-15T08:48:18;99814.84;;;3.43
37452;BMP280;23314;51.114;6.900;2024-01-15T08:50:43;99812.53;;;3.38
37452;BMP280;23314;51.114;6.900;2024-01-15T08:53:11;99804.25;;;3.32
37452;BMP280;23314;51.114;6.900;2024-01-15T08:55:37;99811.78;;;3.27
37452;BMP280;23314;51.114;6.900;2024-01-15T08:58:02;99812.13;;;3.22
37452;BMP280;23314;51.114;6.900;2024-01-15T09:00:28;99814.69;;;3.14
37452;BMP280;23314;51.114;6.900;2024-01-15T09:02:53;99818.84;;;3.12
37452;BMP280;23314;51.114;6.900;2024-01-15T09:05:19;99822.94;;;3.06
37452;BMP280;23314;51.114;6.900;2024-01-15T09:07:44;99824.44;;;3.03
37452;BMP280;23314;51.114;6.900;2024-01-15T09:10:11;99830.44;;;2.96
37452;BMP280;23314;51.114;6.900;2024-01-15T09:12:36;99832.63;;;2.91
37452;BMP280;23314;51.114;6.900;2024-01-15T09:15:01;99834.50;;;2.86
37452;BMP280;23314;51.114;6.900;2024-01-15T09:17:29;99840.50;;;2.83
37452;BMP280;23314;51.114;6.900;2024-01-15T09:19:55;99834.13;;;2.84
37452;BMP280;23314;51.114;6.900;2024-01-15T09:22:20;99848.81;;;2.85
37452;BMP280;23314;51.114;6.900;2024-01-15T09:24:45;99845.41;;;2.85
37452;BMP280;23314;51.114;6.900;2024-01-15T09:27:11;99847.28;;;2.84
37452;BMP280;23314;51.114;6.900;2024-01-15T09:29:36;99848.03;;;2.85
37452;BMP280;23314;51.114;6.900;2024-01-15T09:32:05;99856.69;;;2.85
37452;BMP280;23314;51.114;6.900;2024-01-15T09:34:33;99849.53;;;2.82
37452;BMP280;23314;51.114;6.900;2024-01-15T09:36:58;99852.19;;;2.89
37452;BMP280;23314;51.114;6.900;2024-01-15T09:39:25;99853.34;;;2.92
37452;BMP280;23314;51.114;6.900;2024-01-15T09:41:51;99847.38;;;2.99
37452;BMP280;23314;51.114;6.900;2024-01-15T09:44:17;99848.88;;;3.03
37452;BMP280;23314;51.114;6.900;2024-01-15T09:46:42;99856.03;;;3.03
37452;BMP280;23314;51.114;6.900;2024-01-15T09:49:10;99868.84;;;3.04
37452;BMP280;23314;51.114;6.900;2024-01-15T09:51:36;99867.00;;;3.09
37452;BMP280;23314;51.114;6.900;2024-01-15T09:54:02;99871.88;;;3.07
37452;BMP280;23314;51.114;6.900;2024-01-15T09:56:27;99867.31;;;3.03
37452;BMP280;23314;51.114;6.900;2024-01-15T09:58:53;99875.66;;;3.09
37452;BMP280;23314;51.114;6.900;2024-01-15T10:01:20;99880.22;;;3.12
37452;BMP280;23314;51.114;6.900;2024-01-15T10:03:46;99874.94;;;3.12
37452;BMP280;23314;51.114;6.900;2024-01-15T10:06:15;99871.19;;;3.17
37452;BMP280;23314;51.114;6.900;2024-01-15T10:08:43;99876.47;;;3.21
37452;BMP280;23314;51.114;6.900;2024-01-15T10:11:12;99873.50;;;3.22
37452;BMP280;23314;51.114;6.900;2024-01-15T10:13:38;99878.78;;;3.22
37452;BMP280;23314;51.114;6.900;2024-01-15T10:16:04;99876.88;;;3.23
37452;BMP280;23314;51.114;6.900;2024-01-15T10:18:29;99875.78;;;3.27
37452;BMP280;23314;51.114;6.900;2024-01-15T10:20:56;99882.19;;;3.30
37452;BMP280;23314;51.114;6.900;2024-01-15T10:23:23;99877.28;;;3.32
37452;BMP280;23314;51.114;6.900;2024-01-15T10:25:48;99878.81;;;3.33
37452;BMP280;23314;51.114;6.900;2024-01-15T10:28:13;99886.34;;;3.34
37452;BMP280;23314;51.114;6.900;2024-01-15T10:30:39;99882.56;;;3.32
37452;BMP280;23314;51.114;6.900;2024-01-15T10:33:04;99883.69;;;3.27
37452;BMP280;23314;51.114;6.900;2024-01-15T10:35:31;99890.84;;;3.27
37452;BMP280;23314;51.114;6.900;2024-01-15T10:37:58;99893.06;;;3.25
37452;BMP280;23314;51.114;6.900;2024-01-15T10:40:24;99881.41;;;3.26
37452;BMP280;23314;51.114;6.900;2024-01-15T10:42:49;99878.78;;;3.22
37452;BMP280;23314;51.114;6.900;2024-01-15T10:45:14;99882.16;;;3.23
37452;BMP280;23314;51.114;6.900;2024-01-15T10:47:43;99875.03;;;3.27
37452;BMP280;23314;51.114;6.900;2024-01-15T10:50:09;99879.97;;;3.39
37452;BMP280;23314;51.114;6.900;2024-01-15T10:52:36;99876.19;;;3.40
37452;BMP280;23314;51.114;6.900;2024-01-15T10:55:03;99872.09;;;3.43
37452;BMP280;23314;51.114;6.900;2024-01-15T10:57:30;99880.41;;;3.52
37452;BMP280;23314;51.114;6.900;2024-01-15T10:59:55;99884.22;;;3.55
37452;BMP280;23314;51.114;6.900;2024-01-15T11:02:20;99889.84;;;3.53
37452;BMP280;23314;51.114;6.900;2024-01-15T11:04:46;99886.84;;;3.55
37452;BMP280;23314;51.114;6.900;2024-01-15T11:07:13;99884.16;;;3.51
37452;BMP280;23314;51.114;6.900;2024-01-15T11:09:39;99887.22;;;3.57
37452;BMP280;23314;51.114;6.900;2024-01-15T11:12:10;99875.22;;;3.70
37452;BMP280;23314;51.114;6.900;2024-01-15T11:14:39;99880.16;;;3.83
37452;BMP280;23314;51.114;6.900;2024-01-15T11:17:05;99884.72;;;4.04
37452;BMP280;23314;51.114;6.900;2024-01-15T11:19:50;99885.50;;;4.15
37452;BMP280;23314;51.114;6.900;2024-01-15T11:25:03;99867.34;;;3.92
37452;BMP280;23314;51.114;6.900;2024-01-15T11:27:47;99880.16;;;3.86
37452;BMP280;23314;51.114;6.900;2024-01-15T11:30:13;99872.56;;;3.74
37452;BMP280;23314;51.114;6.900;2024-01-15T11:32:39;99880.50;;;3.74
37452;BMP280;23314;51.114;6.900;2024-01-15T11:35:07;99882.78;;;3.75
37452;BMP280;23314;51.114;6.900;2024-01-15T11:43:02;99870.34;;;3.76
37452;BMP280;23314;51.114;6.900;2024-01-15T11:45:27;99877.88;;;3.77
37452;BMP280;23314;51.114;6.900;2024-01-15T11:48:17;99885.03;;;3.73
37452;BMP280;23314;51.114;6.900;2024-01-15T11:50:47;99879.38;;;3.75
37452;BMP280;23314;51.114;6.900;2024-01-15T11:55:44;99879.06;;;3.94
37452;BMP280;23314;51.114;6.900;2024-01-15T11:58:11;99871.91;;;4.06
37452;BMP280;23314;51.114;6.900;2024-01-15T12:00:40;99870.81;;;4.21
37452;BMP280;23314;51.114;6.900;2024-01-15T12:03:07;99859.91;;;4.23
37452;BMP280;23314;51.114;6.900;2024-01-15T12:05:32;99865.53;;;4.28
37452;BMP280;23314;51.114;6.900;2024-01-15T12:07:57;99866.28;;;4.33
37452;BMP280;23314;51.114;6.900;2024-01-15T12:10:23;99859.91;;;4.52
37452;BMP280;23314;51.114;6.900;2024-01-15T12:13:07;99853.09;;;4.69
37452;BMP280;23314;51.114;6.900;2024-01-15T12:15:34;99870.03;;;4.86
37452;BMP280;23314;51.114;6.900;2024-01-15T12:18:01;99870.03;;;4.93
37452;BMP280;23314;51.114;6.900;2024-01-15T12:20:30;99875.69;;;4.88
37452;BMP280;23314;51.114;6.900;2024-01-15T12:22:56;99862.91;;;4.76
37452;BMP280;23314;51.114;6.900;2024-01-15T12:25:23;99873.06;;;4.66
37452;BMP280;23314;51.114;6.900;2024-01-15T12:27:49;99870.84;;;4.57
37452;BMP280;23314;51.114;6.900;2024-01-15T12:30:14;99871.22;;;4.49
37452;BMP280;23314;51.114;6.900;2024-01-15T12:32:43;99863.66;;;4.36
37452;BMP280;23314;51.114;6.900;2024-01-15T12:35:12;99866.66;;;4.27
37452;BMP280;23314;51.114;6.900;2024-01-15T12:37:39;99866.31;;;4.22
37452;BMP280;23314;51.114;6.900;2024-01-15T12:40:05;99880.63;;;4.21
37452;BMP280;23314;51.114;6.900;2024-01-15T12:42:44;99875.72;;;4.30
37452;BMP280;23314;51.114;6.900;2024-01-15T12:45:11;99877.59;;;4.30
37452;BMP280;23314;51.114;6.900;2024-01-15T12:47:37;99875.72;;;4.34
37452;BMP280;23314;51.114;6.900;2024-01-15T12:50:02;99875.00;;;4.37
37452;BMP280;23314;51.114;6.900;2024-01-15T12:52:31;99873.47;;;4.36
37452;BMP280;23314;51.114;6.900;2024-01-15T12:54:56;99894.22;;;4.30
37452;BMP280;23314;51.114;6.900;2024-01-15T12:57:22;99877.59;;;4.26
37452;BMP280;23314;51.114;6.900;2024-01-15T12:59:48;99885.13;;;4.24
37452;BMP280;23314;51.114;6.900;2024-01-15T13:02:15;99885.91;;;4.21
37452;BMP280;23314;51.114;6.900;2024-01-15T13:04:41;99887.03;;;4.23
37452;BMP280;23314;51.114;6.900;2024-01-15T13:07:07;99892.31;;;4.23
37452;BMP280;23314;51.114;6.900;2024-01-15T13:09:33;99893.06;;;4.27
37452;BMP280;23314;51.114;6.900;2024-01-15T13:12:00;99895.34;;;4.29
37452;BMP280;23314;51.114;6.900;2024-01-15T13:14:26;99894.94;;;4.27
37452;BMP280;23314;51.114;6.900;2024-01-15T13:16:51;99883.22;;;4.24
37452;BMP280;23314;51.114;6.900;2024-01-15T13:19:19;99886.28;;;4.23
37452;BMP280;23314;51.114;6.900;2024-01-15T13:21:44;99883.66;;;4.34
37452;BMP280;23314;51.114;6.900;2024-01-15T13:24:09;99886.28;;;4.34
37452;BMP280;23314;51.114;6.900;2024-01-15T13:26:35;99874.59;;;4.35
37452;BMP280;23314;51.114;6.900;2024-01-15T13:29:03;99885.91;;;4.32
37452;BMP280;23314;51.114;6.900;2024-01-15T13:31:33;99879.09;;;4.31
37452;BMP280;23314;51.114;6.900;2024-01-15T13:33:59;99880.97;;;4.26
37452;BMP280;23314;51.114;6.900;2024-01-15T13:36:27;99892.66;;;4.25
37452;BMP280;23314;51.114;6.900;2024-01-15T13:38:53;99874.97;;;4.22
37452;BMP280;23314;51.114;6.900;2024-01-15T13:41:20;99877.59;;;4.22
37452;BMP280;23314;51.114;6.900;2024-01-15T13:43:50;99891.53;;;4.16
37452;BMP280;23314;51.114;6.900;2024-01-15T13:46:18;99895.31;;;4.15
37452;BMP280;23314;51.114;6.900;2024-01-15T13:48:45;99883.63;;;4.16
37452;BMP280;23314;51.114;6.900;2024-01-15T13:51:10;99889.66;;;4.23
37452;BMP280;23314;51.114;6.900;2024-01-15T13:53:37;99892.69;;;4.18
37452;BMP280;23314;51.114;6.900;2024-01-15T13:56:03;99905.84;;;4.11
37452;BMP280;23314;51.114;6.900;2024-01-15T13:58:30;99899.41;;;4.05
37452;BMP280;23314;51.114;6.900;2024-01-15T14:00:55;99907.31;;;3.97
37452;BMP280;23314;51.114;6.900;2024-01-15T14:03:20;99912.22;;;3.92
37452;BMP280;23314;51.114;6.900;2024-01-15T14:05:46;99930.66;;;3.88
37452;BMP280;23314;51.114;6.900;2024-01-15T14:08:11;99920.09;;;3.85
37452;BMP280;23314;51.114;6.900;2024-01-15T14:10:37;99930.63;;;3.81
37452;BMP280;23314;51.114;6.900;2024-01-15T14:13:02;99933.28;;;3.77
37452;BMP280;23314;51.114;6.900;2024-01-15T14:15:28;99931.72;;;3.69
37452;BMP280;23314;51.114;6.900;2024-01-15T14:17:54;99946.78;;;3.69
37452;BMP280;23314;51.114;6.900;2024-01-15T14:20:19;99954.31;;;3.70
37452;BMP280;23314;51.114;6.900;2024-01-15T14:22:44;99949.81;;;3.71
37452;BMP280;23314;51.114;6.900;2024-01-15T14:25:10;99943.03;;;3.70